Time;durP1;ratioP1;P1;durP2;ratioP2;P2;SDS_P1;SDS_P2;PMS_P1;PMS_P2;Temp;Humidity;BMP_temperature;BMP_pressure;BME280_temperature;BME280_humidity;BME280_pressure;Samples;Min_cycle;Max_cycle;Signal;HPM_P1;HPM_P2
2022/01/15 00:00:34;;;;;;;5.90;3.50;;;-5.70;99.90;;;;;;4389406;32;20101;-69
2022/01/15 00:03:01;;;;;;;5.25;3.25;;;-5.70;99.90;;;;;;4402731;32;20632;-67
2022/01/15 00:05:27;;;;;;;5.53;3.45;;;-5.60;99.90;;;;;;4402419;32;20069;-69
2022/01/15 00:07:53;;;;;;;5.37;2.97;;;-5.60;99.90;;;;;;4390341;32;20093;-69
2022/01/15 00:10:25;;;;;;;4.03;2.72;;;-5.60;99.90;;;;;;4413149;32;20081;-69
2022/01/15 00:12:55;;;;;;;5.90;3.42;;;-5.70;99.90;;;;;;4400136;32;20086;-69
2022/01/15 00:15:27;;;;;;;4.65;3.45;;;-5.60;99.90;;;;;;4392741;32;20427;-68
2022/01/15 00:20:28;;;;;;;4.95;3.08;;;-5.50;99.90;;;;;;4392249;32;20156;-68
2022/01/15 00:22:57;;;;;;;4.80;3.20;;;-5.50;99.90;;;;;;4391749;32;20097;-70
2022/01/15 00:25:25;;;;;;;4.75;3.15;;;-5.40;99.90;;;;;;4393816;32;20097;-70
2022/01/15 00:27:52;;;;;;;5.68;3.05;;;-5.40;99.90;;;;;;4393269;32;20143;-68
2022/01/15 00:30:20;;;;;;;5.10;2.90;;;-5.40;99.90;;;;;;4379676;32;20173;-69
2022/01/15 00:32:47;;;;;;;5.60;3.37;;;-5.40;99.90;;;;;;4392183;32;20080;-68
2022/01/15 00:35:16;;;;;;;5.00;3.03;;;-5.30;99.90;;;;;;4395819;32;20084;-68
2022/01/15 00:37:43;;;;;;;4.97;3.28;;;-5.30;99.90;;;;;;4383045;32;20162;-68
2022/01/15 00:40:14;;;;;;;5.53;3.30;;;-5.20;99.90;;;;;;4395126;32;20062;-69
2022/01/15 00:42:41;;;;;;;4.68;3.30;;;-5.30;99.90;;;;;;4393804;32;20080;-68
2022/01/15 00:45:14;;;;;;;4.75;3.12;;;-5.20;99.90;;;;;;4381083;32;20061;-69
2022/01/15 00:47:41;;;;;;;4.57;3.20;;;-5.20;99.90;;;;;;4392259;32;20160;-69
2022/01/15 00:50:09;;;;;;;4.12;3.00;;;-5.20;99.90;;;;;;4378915;32;20066;-70
2022/01/15 00:52:37;;;;;;;5.43;3.35;;;-5.20;99.90;;;;;;4379023;32;20108;-70
2022/01/15 00:55:05;;;;;;;5.65;3.70;;;-5.20;99.90;;;;;;4391707;32;20537;-69
2022/01/15 00:57:31;;;;;;;4.80;3.37;;;-5.10;99.90;;;;;;4380479;32;20080;-69
2022/01/15 00:59:58;;;;;;;4.65;2.90;;;-5.10;99.90;;;;;;4380645;32;20080;-70
2022/01/15 01:02:24;;;;;;;4.95;3.03;;;-5.00;99.90;;;;;;4392394;32;20516;-68
2022/01/15 01:04:50;;;;;;;5.30;3.28;;;-5.00;99.90;;;;;;4378731;32;20076;-69
2022/01/15 01:07:17;;;;;;;4.65;3.10;;;-4.90;99.90;;;;;;4391101;32;20138;-68
2022/01/15 01:12:55;;;;;;;5.35;3.70;;;-4.90;99.90;;;;;;4381037;32;20089;-68
2022/01/15 01:21:02;;;;;;;5.75;2.80;;;-4.80;99.90;;;;;;4391345;32;20077;-70
2022/01/15 01:23:29;;;;;;;4.72;3.10;;;-4.90;99.90;;;;;;4379628;32;20506;-72
2022/01/15 01:26:04;;;;;;;4.95;3.12;;;-4.80;99.90;;;;;;4392617;32;20145;-68
2022/01/15 01:28:36;;;;;;;4.60;3.00;;;-4.80;99.90;;;;;;4391697;32;20180;-69
2022/01/15 01:31:21;;;;;;;4.60;3.00;;;-4.80;99.90;;;;;;4391559;32;20081;-69
2022/01/15 01:33:51;;;;;;;4.70;3.20;;;-4.80;99.90;;;;;;4391550;32;20073;-69
2022/01/15 01:38:54;;;;;;;5.03;3.30;;;-4.70;99.90;;;;;;4391331;32;20137;-67
2022/01/15 01:41:23;;;;;;;3.87;2.85;;;-4.70;99.90;;;;;;4380163;32;20094;-70
2022/01/15 01:46:35;;;;;;;4.03;2.97;;;-4.70;99.90;;;;;;4392754;32;20092;-69
2022/01/15 01:49:03;;;;;;;4.30;2.90;;;-4.70;99.90;;;;;;4392996;32;20069;-69
2022/01/15 01:51:39;;;;;;;5.30;3.08;;;-4.70;99.90;;;;;;4392251;32;20081;-67
2022/01/15 01:54:11;;;;;;;4.70;3.08;;;-4.70;99.90;;;;;;4390925;32;20192;-68
2022/01/15 01:56:40;;;;;;;4.43;3.05;;;-4.70;99.90;;;;;;4378227;32;20522;-68
2022/01/15 01:59:08;;;;;;;3.72;2.92;;;-4.60;99.90;;;;;;4365696;32;20066;-68
2022/01/15 02:01:36;;;;;;;4.97;3.00;;;-4.60;99.90;;;;;;4392484;32;20158;-68
2022/01/15 02:04:02;;;;;;;3.92;2.85;;;-4.60;99.90;;;;;;4378347;32;20096;-70
2022/01/15 02:06:29;;;;;;;3.92;2.72;;;-4.50;99.90;;;;;;4378856;32;20081;-70
2022/01/15 02:08:57;;;;;;;4.32;2.78;;;-4.60;99.90;;;;;;4378310;32;20070;-69
2022/01/15 02:11:25;;;;;;;5.35;3.37;;;-4.60;99.90;;;;;;4365853;32;20159;-69
2022/01/15 02:13:52;;;;;;;4.60;3.20;;;-4.50;99.90;;;;;;4390147;32;20109;-70
2022/01/15 02:16:18;;;;;;;3.78;2.83;;;-4.50;99.90;;;;;;4365354;32;20512;-70
2022/01/15 02:18:45;;;;;;;4.45;2.90;;;-4.50;99.90;;;;;;4392178;32;20088;-69
2022/01/15 02:23:44;;;;;;;3.25;2.60;;;-4.50;99.90;;;;;;4390282;32;20536;-68
2022/01/15 02:26:31;;;;;;;4.60;2.92;;;-4.50;99.90;;;;;;4390357;32;20082;-70
2022/01/15 02:29:00;;;;;;;4.55;3.17;;;-4.50;99.90;;;;;;4391600;32;20074;-69
2022/01/15 02:31:29;;;;;;;4.90;3.15;;;-4.50;99.90;;;;;;4371302;32;20538;-70
2022/01/15 02:34:01;;;;;;;5.32;3.05;;;-4.40;99.90;;;;;;4399953;32;20518;-70
2022/01/15 02:36:34;;;;;;;4.35;3.30;;;-4.50;99.90;;;;;;4366231;32;20089;-70
2022/01/15 02:39:03;;;;;;;5.62;3.35;;;-4.50;99.90;;;;;;4377508;32;20089;-70
2022/01/15 02:41:38;;;;;;;5.30;3.53;;;-4.50;99.90;;;;;;4377257;32;20072;-69
2022/01/15 02:44:16;;;;;;;4.80;3.50;;;-4.60;99.90;;;;;;4377468;32;20109;-69
2022/01/15 02:49:17;;;;;;;5.28;3.47;;;-4.50;99.90;;;;;;4389815;32;20073;-70
2022/01/15 02:51:44;;;;;;;5.85;3.92;;;-4.50;99.90;;;;;;4390236;32;20081;-68
2022/01/15 02:54:10;;;;;;;7.50;3.60;;;-4.50;99.90;;;;;;4365082;32;20504;-69
2022/01/15 02:56:43;;;;;;;4.68;3.17;;;-4.60;99.90;;;;;;4377318;32;20077;-70
2022/01/15 02:59:20;;;;;;;4.62;3.40;;;-4.60;99.90;;;;;;4389629;32;20090;-68
2022/01/15 03:01:49;;;;;;;4.47;3.30;;;-4.60;99.90;;;;;;4365355;32;20090;-70
2022/01/15 03:04:17;;;;;;;7.93;3.80;;;-4.60;99.90;;;;;;4389806;32;20069;-70
2022/01/15 03:06:44;;;;;;;6.78;4.10;;;-4.60;99.90;;;;;;4390342;32;20169;-68
2022/01/15 03:09:11;;;;;;;5.12;3.37;;;-4.70;99.90;;;;;;4377591;32;20504;-69
2022/01/15 03:11:37;;;;;;;5.45;3.10;;;-4.70;99.90;;;;;;4377175;32;20160;-69
2022/01/15 03:14:04;;;;;;;6.37;3.90;;;-4.70;99.90;;;;;;4364879;32;20100;-70
2022/01/15 03:16:30;;;;;;;6.82;3.50;;;-4.70;99.90;;;;;;4377211;32;20108;-70
2022/01/15 03:18:57;;;;;;;6.22;3.30;;;-4.70;99.90;;;;;;4389804;32;20086;-69
2022/01/15 03:21:24;;;;;;;5.37;3.55;;;-4.60;99.90;;;;;;4391123;32;20084;-69
2022/01/15 03:23:51;;;;;;;5.37;3.72;;;-4.70;99.90;;;;;;4365561;32;20146;-67
2022/01/15 03:26:17;;;;;;;7.37;4.45;;;-4.60;99.90;;;;;;4391180;32;20070;-70
2022/01/15 03:28:43;;;;;;;9.20;6.43;;;-4.70;99.90;;;;;;4377375;32;20139;-69
2022/01/15 03:31:11;;;;;;;12.75;8.57;;;-4.70;99.90;;;;;;4390824;32;20520;-69
2022/01/15 03:33:37;;;;;;;14.30;8.30;;;-4.80;99.90;;;;;;4389636;32;20082;-69
2022/01/15 03:36:04;;;;;;;13.85;8.43;;;-4.80;99.90;;;;;;4364560;32;20163;-69
2022/01/15 03:38:30;;;;;;;13.77;8.43;;;-4.80;99.90;;;;;;4389630;32;20072;-69
2022/01/15 03:40:57;;;;;;;13.10;8.55;;;-4.70;99.90;;;;;;4376989;32;20074;-69
2022/01/15 03:43:24;;;;;;;13.43;9.15;;;-4.80;99.90;;;;;;4376860;32;20496;-70
2022/01/15 03:45:51;;;;;;;9.27;6.70;;;-4.80;99.90;;;;;;4376839;32;20080;-70
2022/01/15 03:48:18;;;;;;;10.27;5.90;;;-5.00;99.90;;;;;;4392499;32;20132;-68
2022/01/15 03:50:44;;;;;;;7.68;5.60;;;-5.00;99.90;;;;;;4392290;32;20078;-70
2022/01/15 03:53:11;;;;;;;7.30;5.30;;;-5.20;99.90;;;;;;4367086;32;20134;-70
2022/01/15 03:55:37;;;;;;;8.15;4.85;;;-5.30;99.90;;;;;;4379628;32;20575;-69
2022/01/15 03:58:04;;;;;;;6.05;4.47;;;-5.30;99.90;;;;;;4392144;32;20093;-70
2022/01/15 04:00:31;;;;;;;6.57;4.87;;;-5.30;99.90;;;;;;4366949;32;20101;-69
2022/01/15 04:02:58;;;;;;;6.85;4.00;;;-5.30;99.90;;;;;;4379531;32;20065;-68
2022/01/15 04:05:25;;;;;;;5.43;3.85;;;-5.30;99.90;;;;;;4392191;32;20105;-70
2022/01/15 04:07:52;;;;;;;4.72;3.62;;;-5.30;99.90;;;;;;4367440;32;20078;-69
2022/01/15 04:10:19;;;;;;;5.55;3.72;;;-5.30;99.90;;;;;;4379426;32;20086;-68
2022/01/15 04:12:46;;;;;;;5.93;4.20;;;-5.30;99.90;;;;;;4392213;32;20090;-70
2022/01/15 04:15:13;;;;;;;6.62;4.37;;;-5.30;99.90;;;;;;4392815;32;20093;-69
2022/01/15 04:17:49;;;;;;;6.00;3.90;;;-5.30;99.90;;;;;;4392110;32;20073;-69
2022/01/15 04:20:19;;;;;;;7.27;4.97;;;-5.30;99.90;;;;;;4379749;32;20070;-69
2022/01/15 04:22:48;;;;;;;9.07;4.75;;;-5.40;99.90;;;;;;4380998;32;20165;-69
2022/01/15 04:25:14;;;;;;;6.12;4.25;;;-5.40;99.90;;;;;;4379942;32;20165;-70
2022/01/15 04:27:42;;;;;;;7.40;5.25;;;-5.50;99.90;;;;;;4391829;32;20123;-69
2022/01/15 04:30:12;;;;;;;6.28;3.85;;;-5.70;99.90;;;;;;4391486;32;20475;-68
2022/01/15 04:32:39;;;;;;;5.00;3.87;;;-5.70;99.90;;;;;;4379527;32;20089;-68
2022/01/15 04:35:06;;;;;;;5.70;4.25;;;-5.70;99.90;;;;;;4378853;32;20541;-69
2022/01/15 04:37:39;;;;;;;6.93;4.60;;;-5.80;99.90;;;;;;4379308;32;20081;-70
2022/01/15 04:40:09;;;;;;;7.87;4.28;;;-5.80;99.90;;;;;;4367051;32;20170;-69
2022/01/15 04:42:35;;;;;;;5.53;3.90;;;-5.80;99.90;;;;;;4379424;32;20077;-69
2022/01/15 04:45:06;;;;;;;6.35;4.00;;;-5.90;99.90;;;;;;4379193;32;20065;-69
2022/01/15 04:47:34;;;;;;;6.00;4.03;;;-5.90;99.90;;;;;;4392045;32;20077;-68
2022/01/15 04:50:01;;;;;;;5.78;3.83;;;-6.00;99.90;;;;;;4379117;32;20167;-68
2022/01/15 04:52:28;;;;;;;5.72;4.00;;;-6.00;99.90;;;;;;4380418;32;20135;-69
2022/01/15 04:54:54;;;;;;;6.20;4.07;;;-6.10;99.90;;;;;;4385908;32;20057;-68
2022/01/15 04:57:21;;;;;;;5.47;3.65;;;-6.10;99.90;;;;;;4368224;32;20153;-67
2022/01/15 04:59:48;;;;;;;5.03;3.20;;;-6.10;99.90;;;;;;4378745;32;20073;-69
2022/01/15 05:02:14;;;;;;;7.75;4.03;;;-6.00;99.90;;;;;;4378976;32;20074;-68
2022/01/15 05:04:41;;;;;;;6.47;3.90;;;-6.00;99.90;;;;;;4391380;32;20103;-67
2022/01/15 05:07:07;;;;;;;6.75;3.33;;;-6.10;99.90;;;;;;4378903;32;20070;-69
2022/01/15 05:09:33;;;;;;;7.12;4.20;;;-6.10;99.90;;;;;;4393182;32;20532;-68
2022/01/15 05:12:05;;;;;;;6.28;3.85;;;-6.10;99.90;;;;;;4391304;32;20070;-69
2022/01/15 05:14:31;;;;;;;5.60;3.67;;;-6.10;99.90;;;;;;4392151;32;20134;-68
2022/01/15 05:16:58;;;;;;;5.10;3.53;;;-6.10;99.90;;;;;;4392511;32;20088;-67
2022/01/15 05:19:24;;;;;;;5.00;3.30;;;-6.10;99.90;;;;;;4378532;32;20142;-69
2022/01/15 05:21:54;;;;;;;5.80;3.65;;;-6.20;99.90;;;;;;4391218;32;20105;-69
2022/01/15 05:24:21;;;;;;;5.37;3.58;;;-6.20;99.90;;;;;;4391755;32;20515;-68
2022/01/15 05:26:47;;;;;;;3.87;2.58;;;-6.20;99.90;;;;;;4391362;32;20055;-67
2022/01/15 05:29:14;;;;;;;4.78;3.05;;;-6.30;99.90;;;;;;4366158;32;20089;-69
2022/01/15 05:31:40;;;;;;;6.15;3.70;;;-6.40;99.90;;;;;;4377487;32;20564;-68
2022/01/15 05:34:07;;;;;;;4.47;2.72;;;-6.50;99.90;;;;;;4380524;32;20516;-69
2022/01/15 05:36:33;;;;;;;5.03;3.20;;;-6.50;99.90;;;;;;4376309;32;20074;-67
2022/01/15 05:39:00;;;;;;;4.20;2.95;;;-6.50;99.90;;;;;;4363111;32;20078;-68
2022/01/15 05:41:27;;;;;;;4.93;3.00;;;-6.60;99.90;;;;;;4353463;32;20102;-67
2022/01/15 05:43:53;;;;;;;4.95;3.25;;;-6.70;99.90;;;;;;4378435;32;20468;-69
2022/01/15 05:46:19;;;;;;;6.03;3.22;;;-6.60;99.90;;;;;;4377562;32;20178;-67
2022/01/15 05:48:46;;;;;;;4.70;2.60;;;-6.70;99.90;;;;;;4363485;32;20167;-69
2022/01/15 05:51:12;;;;;;;5.28;3.50;;;-6.70;99.90;;;;;;4375636;32;20112;-68
2022/01/15 05:53:39;;;;;;;5.87;3.03;;;-6.80;99.90;;;;;;4363510;32;20086;-67
2022/01/15 05:56:06;;;;;;;6.80;3.90;;;-6.70;99.90;;;;;;4363460;32;20074;-70
2022/01/15 05:58:32;;;;;;;4.97;3.20;;;-6.80;99.90;;;;;;4376862;32;20160;-67
2022/01/15 06:00:58;;;;;;;6.37;3.80;;;-6.90;99.90;;;;;;4374867;32;20156;-68
2022/01/15 06:03:25;;;;;;;5.97;3.90;;;-7.00;99.90;;;;;;4377045;32;20514;-69
2022/01/15 06:05:51;;;;;;;5.85;3.45;;;-7.10;99.90;;;;;;4362848;32;20075;-69
2022/01/15 06:08:18;;;;;;;5.95;3.78;;;-7.10;99.90;;;;;;4375509;32;20074;-68
2022/01/15 06:10:45;;;;;;;4.75;3.30;;;-7.00;99.90;;;;;;4362520;32;20516;-68
2022/01/15 06:13:11;;;;;;;5.75;3.17;;;-7.20;99.90;;;;;;4350771;32;20085;-69
2022/01/15 06:15:38;;;;;;;6.40;4.00;;;-7.30;99.90;;;;;;4375118;32;20501;-69
2022/01/15 06:18:05;;;;;;;6.35;3.47;;;-7.50;99.90;;;;;;4362889;32;20105;-69
2022/01/15 06:20:31;;;;;;;7.03;3.60;;;-7.40;99.90;;;;;;4362706;32;20074;-67
2022/01/15 06:22:58;;;;;;;8.35;4.40;;;-7.50;99.90;;;;;;4375049;32;20074;-68
2022/01/15 06:25:24;;;;;;;8.32;4.45;;;-7.60;99.90;;;;;;4376385;32;20477;-68
2022/01/15 06:27:51;;;;;;;7.57;4.72;;;-7.60;99.90;;;;;;4375821;32;20193;-67
2022/01/15 06:30:18;;;;;;;7.05;4.47;;;-7.70;99.90;;;;;;4375676;32;20071;-68
2022/01/15 06:32:44;;;;;;;8.40;4.57;;;-7.60;99.90;;;;;;4374905;32;20070;-68
2022/01/15 06:35:13;;;;;;;5.60;3.10;;;-7.70;99.90;;;;;;4375537;32;20516;-69
2022/01/15 06:37:40;;;;;;;7.65;3.90;;;-7.70;99.90;;;;;;4362613;32;20166;-69
2022/01/15 06:40:08;;;;;;;5.70;3.83;;;-7.60;99.90;;;;;;4374800;32;20110;-66
2022/01/15 06:44:28;;;;;;;8.07;4.10;;;-7.70;99.90;;;;;;3857332;37;20058;-68
2022/01/15 06:46:55;;;;;;;6.93;3.92;;;-7.70;99.90;;;;;;4419058;32;20085;-66
2022/01/15 06:49:22;;;;;;;5.30;3.22;;;-7.70;99.90;;;;;;4405667;32;20078;-68
2022/01/15 06:51:49;;;;;;;7.47;4.50;;;-7.80;99.90;;;;;;4405703;32;20081;-67
2022/01/15 06:54:15;;;;;;;6.47;3.90;;;-7.70;99.90;;;;;;4393075;32;20077;-66
2022/01/15 06:56:42;;;;;;;6.85;3.97;;;-7.90;99.90;;;;;;4405466;32;20158;-66
2022/01/15 06:59:08;;;;;;;7.25;4.30;;;-7.80;99.90;;;;;;4419704;32;20092;-67
2022/01/15 07:01:35;;;;;;;9.48;4.43;;;-7.90;99.90;;;;;;4405379;32;20103;-66
2022/01/15 07:04:01;;;;;;;5.53;3.40;;;-7.80;99.90;;;;;;4419994;32;20108;-66
2022/01/15 07:06:28;;;;;;;5.75;3.87;;;-7.90;99.90;;;;;;4392596;32;20074;-67
2022/01/15 07:08:54;;;;;;;7.60;4.87;;;-7.80;99.90;;;;;;4418411;32;20096;-68
2022/01/15 07:11:21;;;;;;;7.30;5.45;;;-7.80;99.90;;;;;;4418205;32;20097;-67
2022/01/15 07:13:47;;;;;;;7.53;5.18;;;-7.40;99.90;;;;;;4424757;32;20081;-67
2022/01/15 07:16:14;;;;;;;6.28;4.47;;;-7.50;99.90;;;;;;4405141;32;20073;-67
2022/01/15 07:18:40;;;;;;;6.62;4.80;;;-7.30;99.90;;;;;;4422766;32;20089;-68
2022/01/15 07:21:06;;;;;;;5.87;3.70;;;-7.50;99.90;;;;;;4421356;32;20075;-67
2022/01/15 07:23:33;;;;;;;6.80;4.90;;;-7.40;99.90;;;;;;4417635;32;20500;-68
2022/01/15 07:25:59;;;;;;;8.10;3.75;;;-7.50;99.90;;;;;;4418005;32;20081;-69
2022/01/15 07:28:27;;;;;;;10.32;4.50;;;-7.50;99.90;;;;;;4417676;32;20512;-67
2022/01/15 07:30:54;;;;;;;5.97;4.10;;;-7.80;99.90;;;;;;4405048;32;20096;-67
2022/01/15 07:33:20;;;;;;;6.07;3.83;;;-7.70;99.90;;;;;;4404932;32;20157;-67
2022/01/15 07:35:47;;;;;;;5.40;4.18;;;-7.70;99.90;;;;;;4407923;32;20579;-67
2022/01/15 07:38:14;;;;;;;7.43;4.10;;;-7.60;99.90;;;;;;4404083;32;20079;-67
2022/01/15 07:40:55;;;;;;;6.77;4.50;;;-7.40;99.90;;;;;;3857394;37;20070;-67
2022/01/15 07:43:22;;;;;;;5.47;3.50;;;-7.60;99.90;;;;;;4406584;32;20088;-67
2022/01/15 07:45:48;;;;;;;7.18;4.07;;;-7.40;99.90;;;;;;4405568;32;20088;-67
2022/01/15 07:48:15;;;;;;;5.68;3.70;;;-7.50;99.90;;;;;;4405529;32;20090;-67
2022/01/15 07:50:42;;;;;;;6.90;3.78;;;-7.30;99.90;;;;;;4405608;32;20073;-67
2022/01/15 07:53:09;;;;;;;5.25;3.87;;;-7.30;99.90;;;;;;4418401;32;20094;-67
2022/01/15 07:55:35;;;;;;;5.07;3.42;;;-7.40;99.90;;;;;;4405568;32;20158;-67
2022/01/15 07:58:06;;;;;;;6.32;4.18;;;-7.50;99.90;;;;;;4419631;32;20148;-67
2022/01/15 08:00:33;;;;;;;5.57;4.15;;;-7.40;99.90;;;;;;4405664;32;20084;-68
2022/01/15 08:02:59;;;;;;;7.10;4.37;;;-7.60;99.90;;;;;;4405568;32;20077;-67
2022/01/15 08:05:26;;;;;;;6.95;3.92;;;-7.80;99.90;;;;;;4418798;32;20077;-66
2022/01/15 08:07:53;;;;;;;4.72;3.40;;;-7.80;99.90;;;;;;4405409;32;20069;-67
2022/01/15 08:10:19;;;;;;;5.50;3.87;;;-8.00;99.90;;;;;;4407050;32;20594;-68
2022/01/15 08:12:50;;;;;;;6.95;4.10;;;-7.90;99.90;;;;;;4392684;32;20448;-66
2022/01/15 08:15:19;;;;;;;6.30;3.72;;;-7.90;99.90;;;;;;4418674;32;20074;-67
2022/01/15 08:17:46;;;;;;;30.30;6.03;;;-8.00;99.90;;;;;;4418431;32;20097;-68
2022/01/15 08:20:14;;;;;;;6.12;3.85;;;-8.40;99.90;;;;;;4419230;32;20451;-67
2022/01/15 08:22:42;;;;;;;6.43;3.58;;;-8.30;99.90;;;;;;4405101;32;20066;-66
2022/01/15 08:25:10;;;;;;;5.22;3.40;;;-8.30;99.90;;;;;;4392932;32;20089;-67
2022/01/15 08:27:37;;;;;;;8.25;4.28;;;-8.30;99.90;;;;;;4417955;32;20156;-66
2022/01/15 08:30:05;;;;;;;6.55;4.20;;;-8.50;99.90;;;;;;4417686;32;20081;-67
2022/01/15 08:32:32;;;;;;;3.47;2.03;;;-8.80;99.90;;;;;;4405363;32;20104;-66
2022/01/15 08:34:58;;;;;;;2.90;2.08;;;-8.60;99.90;;;;;;4389787;32;20193;-67
2022/01/15 08:37:25;;;;;;;4.82;3.58;;;-8.60;99.90;;;;;;4389790;32;20081;-66
2022/01/15 08:39:52;;;;;;;5.28;3.50;;;-8.60;99.90;;;;;;4401955;32;20060;-66
2022/01/15 08:42:19;;;;;;;7.70;3.80;;;-9.00;99.90;;;;;;4402592;32;20069;-69
2022/01/15 08:44:46;;;;;;;7.18;4.43;;;-8.90;99.90;;;;;;4389625;32;20074;-67
2022/01/15 08:47:12;;;;;;;7.07;3.45;;;-8.80;99.90;;;;;;4390111;32;20073;-67
2022/01/15 08:49:40;;;;;;;6.35;4.37;;;-8.80;99.90;;;;;;4389285;32;20070;-68
2022/01/15 08:52:07;;;;;;;7.65;4.37;;;-9.00;99.90;;;;;;4379712;32;20070;-67
2022/01/15 08:54:33;;;;;;;7.75;4.87;;;-8.90;99.90;;;;;;4392215;32;20081;-67
2022/01/15 08:57:00;;;;;;;8.30;4.50;;;-9.10;99.90;;;;;;4379587;32;20081;-68
2022/01/15 08:59:27;;;;;;;6.75;4.80;;;-9.10;99.90;;;;;;4393374;32;20078;-67
2022/01/15 09:01:58;;;;;;;6.68;4.03;;;-9.10;99.90;;;;;;4394169;32;20144;-66
2022/01/15 09:04:26;;;;;;;8.23;4.28;;;-9.20;99.90;;;;;;4381005;32;20513;-68
2022/01/15 09:06:52;;;;;;;6.18;4.30;;;-9.10;99.90;;;;;;4392198;32;20186;-66
2022/01/15 09:09:19;;;;;;;6.30;4.53;;;-9.20;99.90;;;;;;4391852;32;20078;-66
2022/01/15 09:11:46;;;;;;;7.35;3.95;;;-9.40;99.90;;;;;;4391978;32;20081;-67
2022/01/15 09:14:12;;;;;;;5.05;3.50;;;-9.20;99.90;;;;;;4379112;32;20065;-66
2022/01/15 09:16:39;;;;;;;7.82;5.00;;;-9.20;99.90;;;;;;4393154;32;20182;-67
2022/01/15 09:19:07;;;;;;;8.75;5.32;;;-9.40;99.90;;;;;;4379165;32;20069;-66
2022/01/15 09:21:33;;;;;;;7.62;4.25;;;-9.40;99.90;;;;;;4391866;32;20078;-68
2022/01/15 09:24:01;;;;;;;7.68;4.65;;;-9.30;99.90;;;;;;4391706;32;20140;-67
2022/01/15 09:26:49;;;;;;;8.88;5.25;;;-9.40;99.90;;;;;;4379041;32;20453;-66
2022/01/15 09:32:05;;;;;;;7.62;4.78;;;-9.30;99.90;;;;;;4391932;32;20081;-68
2022/01/15 09:34:34;;;;;;;6.85;4.80;;;-9.30;99.90;;;;;;4399760;32;20074;-67
2022/01/15 09:37:02;;;;;;;8.10;5.03;;;-9.30;99.90;;;;;;4384966;32;20165;-65
2022/01/15 09:39:30;;;;;;;5.70;4.53;;;-9.40;99.90;;;;;;4378545;32;20078;-66
2022/01/15 09:41:57;;;;;;;8.23;5.40;;;-9.30;99.90;;;;;;4379183;32;20084;-65
2022/01/15 09:44:25;;;;;;;7.93;5.68;;;-9.60;99.90;;;;;;4378622;32;20082;-64
2022/01/15 09:46:52;;;;;;;7.05;4.57;;;-9.60;99.90;;;;;;4391466;32;20081;-66
2022/01/15 09:49:23;;;;;;;6.93;4.93;;;-9.70;99.90;;;;;;4379167;32;20096;-66
2022/01/15 09:51:50;;;;;;;7.93;5.78;;;-9.60;99.90;;;;;;4392126;32;20453;-65
2022/01/15 09:54:18;;;;;;;7.15;4.35;;;-9.60;99.90;;;;;;4378891;32;20077;-63
2022/01/15 09:56:46;;;;;;;8.48;5.53;;;-9.60;99.90;;;;;;4378556;32;20183;-63
2022/01/15 09:59:14;;;;;;;6.82;4.45;;;-9.70;99.90;;;;;;4378710;32;20074;-65
2022/01/15 10:01:41;;;;;;;7.80;5.20;;;-9.80;99.90;;;;;;4378393;32;20455;-64
2022/01/15 10:04:07;;;;;;;9.32;5.32;;;-9.80;99.90;;;;;;4378631;32;20230;-64
2022/01/15 10:06:34;;;;;;;8.48;5.78;;;-9.90;99.90;;;;;;4390895;32;20460;-65
2022/01/15 10:09:06;;;;;;;8.63;4.78;;;-9.70;99.90;;;;;;4390994;32;20062;-67
2022/01/15 10:11:52;;;;;;;9.43;5.62;;;-9.70;99.90;;;;;;4392488;32;20089;-66
2022/01/15 10:14:31;;;;;;;9.02;5.53;;;-9.70;99.90;;;;;;4391517;32;20097;-64
2022/01/15 10:17:00;;;;;;;5.03;3.65;;;-9.90;99.90;;;;;;4391090;32;20451;-65
2022/01/15 10:19:38;;;;;;;6.07;3.42;;;-9.80;99.90;;;;;;4392253;32;20089;-65
2022/01/15 10:22:20;;;;;;;7.28;4.62;;;-9.80;99.90;;;;;;4390440;32;20160;-65
2022/01/15 10:24:56;;;;;;;8.98;5.57;;;-9.80;99.90;;;;;;4390907;32;20158;-66
2022/01/15 10:27:30;;;;;;;;;;;-9.70;99.90;;;;;;4392459;32;20077;-65
2022/01/15 10:30:17;;;;;;;9.55;5.05;;;-9.70;99.90;;;;;;4390898;32;19965;-65
2022/01/15 10:33:08;;;;;;;8.23;5.12;;;-9.60;99.90;;;;;;4380105;32;20608;-66
2022/01/15 10:35:39;;;;;;;7.82;5.35;;;-9.70;99.90;;;;;;4391064;32;20101;-66
2022/01/15 10:38:10;;;;;;;9.23;6.43;;;-9.70;99.90;;;;;;4378373;32;20098;-65
2022/01/15 10:40:55;;;;;;;9.15;5.70;;;-9.70;99.90;;;;;;4390737;32;20089;-66
2022/01/15 10:43:33;;;;;;;10.32;5.07;;;-9.80;99.90;;;;;;4391625;32;20580;-64
2022/01/15 10:46:01;;;;;;;8.20;5.93;;;-9.80;99.90;;;;;;4390631;32;20066;-65
2022/01/15 10:48:35;;;;;;;8.70;5.32;;;-9.80;99.90;;;;;;4390513;32;20081;-64
2022/01/15 10:51:08;;;;;;;9.80;7.07;;;-9.90;99.90;;;;;;4378234;32;20074;-64
2022/01/15 10:53:42;;;;;;;6.60;4.12;;;-10.00;99.90;;;;;;4392114;32;20082;-66
2022/01/15 10:56:12;;;;;;;9.50;5.22;;;-10.00;99.90;;;;;;4377962;32;20096;-64
2022/01/15 10:58:39;;;;;;;8.05;5.18;;;-9.90;99.90;;;;;;4378111;32;20170;-65
2022/01/15 11:01:06;;;;;;;10.52;5.72;;;-9.80;99.90;;;;;;4377564;32;20442;-66
2022/01/15 11:03:44;;;;;;;9.65;5.95;;;-9.70;99.90;;;;;;4389869;32;20081;-65
2022/01/15 11:06:10;;;;;;;8.95;5.55;;;-9.60;99.90;;;;;;4365813;32;20169;-66
2022/01/15 11:08:40;;;;;;;10.20;6.40;;;-9.90;99.90;;;;;;4390172;32;20080;-63
2022/01/15 11:11:13;;;;;;;9.18;5.65;;;-9.90;99.90;;;;;;4377498;32;20061;-64
2022/01/15 11:13:47;;;;;;;10.65;7.10;;;-10.00;99.90;;;;;;4389798;32;20472;-63
2022/01/15 11:16:16;;;;;;;9.57;5.85;;;-9.90;99.90;;;;;;4391193;32;20074;-64
2022/01/15 11:18:49;;;;;;;11.70;7.00;;;-9.70;99.90;;;;;;4390115;32;20475;-64
2022/01/15 11:21:20;;;;;;;9.60;6.85;;;-9.90;99.90;;;;;;4390528;32;20074;-65
2022/01/15 11:23:49;;;;;;;7.70;5.32;;;-10.00;99.90;;;;;;4389886;32;20074;-66
2022/01/15 11:26:24;;;;;;;12.80;7.60;;;-10.10;99.90;;;;;;4390261;32;20170;-64
2022/01/15 11:28:53;;;;;;;9.85;6.15;;;-10.10;99.90;;;;;;4389991;32;20149;-65
2022/01/15 11:31:34;;;;;;;11.80;6.20;;;-10.10;99.90;;;;;;4377461;32;20093;-66
2022/01/15 11:34:05;;;;;;;12.05;7.62;;;-10.10;99.90;;;;;;4377410;32;20062;-65
2022/01/15 11:36:37;;;;;;;12.48;7.05;;;-10.30;99.90;;;;;;4391474;32;20086;-65
2022/01/15 11:39:06;;;;;;;10.93;7.05;;;-10.30;99.90;;;;;;4389828;32;20092;-66
2022/01/15 11:41:33;;;;;;;12.65;7.80;;;-10.30;99.90;;;;;;4391283;32;20083;-66
2022/01/15 11:44:16;;;;;;;12.18;7.37;;;-10.40;99.90;;;;;;4377276;32;20074;-65
2022/01/15 11:49:30;;;;;;;13.10;8.70;;;-10.30;99.90;;;;;;3857261;37;20054;-66
2022/01/15 11:52:09;;;;;;;13.48;8.15;;;-10.50;99.90;;;;;;4405793;32;20474;-65
2022/01/15 11:54:54;;;;;;;13.52;8.65;;;-10.50;99.90;;;;;;4425589;32;20065;-65
2022/01/15 11:57:27;;;;;;;8.77;5.37;;;-10.50;99.90;;;;;;4426595;32;20084;-67
2022/01/15 12:00:16;;;;;;;6.35;4.75;;;-10.50;99.90;;;;;;4418109;32;20142;-66
2022/01/15 12:02:59;;;;;;;10.05;5.90;;;-10.60;99.90;;;;;;4418597;32;20165;-65
2022/01/15 12:05:31;;;;;;;12.05;6.60;;;-10.70;99.90;;;;;;4418862;32;20072;-66
2022/01/15 12:08:03;;;;;;;13.68;9.15;;;-10.60;99.90;;;;;;4418870;32;20076;-65
2022/01/15 12:10:45;;;;;;;11.52;7.93;;;-10.70;99.90;;;;;;4418559;32;20078;-65
2022/01/15 12:13:21;;;;;;;11.65;8.05;;;-10.70;99.90;;;;;;4419041;32;20057;-66
2022/01/15 12:16:09;;;;;;;12.95;7.75;;;-10.60;99.90;;;;;;4406491;32;20077;-64
2022/01/15 12:18:58;;;;;;;12.63;7.78;;;-10.60;99.90;;;;;;4419098;32;20073;-65
2022/01/15 12:21:54;;;;;;;12.13;8.65;;;-10.80;99.90;;;;;;4405094;32;20620;-66
2022/01/15 12:24:49;;;;;;;14.32;7.25;;;-10.80;99.90;;;;;;4405373;32;20095;-66
2022/01/15 12:27:16;;;;;;;12.90;7.97;;;-10.90;99.90;;;;;;4417972;32;20073;-65
2022/01/15 12:29:44;;;;;;;11.40;6.70;;;-10.70;99.90;;;;;;4405310;32;20088;-66
2022/01/15 12:32:12;;;;;;;13.45;8.77;;;-10.80;99.90;;;;;;4405023;32;20530;-66
2022/01/15 12:34:39;;;;;;;13.88;9.25;;;-10.90;99.90;;;;;;4414565;32;20479;-66
2022/01/15 12:37:14;;;;;;;14.02;7.57;;;-11.00;99.90;;;;;;4389746;32;20122;-65
2022/01/15 12:39:41;;;;;;;14.75;9.35;;;-10.90;99.90;;;;;;4390009;32;20157;-65
2022/01/15 12:42:11;;;;;;;15.00;9.55;;;-11.00;99.90;;;;;;4402722;32;20093;-66
2022/01/15 12:44:49;;;;;;;11.50;7.85;;;-11.00;99.90;;;;;;4390394;32;20509;-65
2022/01/15 12:47:16;;;;;;;12.77;7.62;;;-11.00;99.90;;;;;;4401715;32;20132;-66
2022/01/15 12:49:47;;;;;;;11.23;8.70;;;-10.90;99.90;;;;;;4402553;32;20100;-65
2022/01/15 12:52:16;;;;;;;13.20;7.50;;;-11.00;99.90;;;;;;4377110;32;20085;-64
2022/01/15 12:54:48;;;;;;;12.63;7.85;;;-11.00;99.90;;;;;;4402183;32;20068;-65
2022/01/15 12:57:40;;;;;;;12.90;7.40;;;-11.00;99.90;;;;;;4402565;32;20102;-64
2022/01/15 13:00:31;;;;;;;9.70;5.55;;;-11.00;99.90;;;;;;4394935;32;20150;-65
2022/01/15 13:03:05;;;;;;;11.88;7.90;;;-10.90;99.90;;;;;;4392346;32;20174;-65
2022/01/15 13:05:38;;;;;;;12.93;8.65;;;-11.00;99.90;;;;;;4392185;32;20097;-67
2022/01/15 13:08:11;;;;;;;10.65;6.87;;;-11.00;99.90;;;;;;4379564;32;20142;-66
2022/01/15 13:10:48;;;;;;;12.55;8.52;;;-10.90;99.90;;;;;;4393216;32;20074;-66
2022/01/15 13:13:32;;;;;;;13.30;7.93;;;-10.90;99.90;;;;;;4380077;32;20153;-65
2022/01/15 13:16:15;;;;;;;13.02;9.25;;;-10.80;99.90;;;;;;4367649;32;20073;-65
2022/01/15 13:18:55;;;;;;;14.18;8.70;;;-10.80;99.90;;;;;;4379767;32;20167;-66
2022/01/15 13:21:28;;;;;;;12.75;7.65;;;-10.90;99.90;;;;;;4393694;32;20074;-64
2022/01/15 13:24:12;;;;;;;11.57;7.62;;;-10.90;99.90;;;;;;4379329;32;20077;-66